Time;durP1;ratioP1;P1;durP2;ratioP2;P2;SDS_P1;SDS_P2;PMS_P1;PMS_P2;Temp;Humidity;BMP_temperature;BMP_pressure;BME280_temperature;BME280_humidity;BME280_pressure;Samples;Min_cycle;Max_cycle;Signal;HPM_P1;HPM_P2
2023/10/12 00:00:48;;;;;;;0.40;0.40;;;;;;;18.23;100.00;100158.50;5032710;28;20030;-67
2023/10/12 00:03:16;;;;;;;1.35;0.40;;;;;;;18.23;100.00;100138.66;5014638;28;20037;-69
2023/10/12 00:05:45;;;;;;;0.38;0.20;;;;;;;18.23;100.00;100141.38;5028644;28;20406;-68
2023/10/12 00:08:24;;;;;;;1.17;0.30;;;;;;;18.14;100.00;100144.63;5030676;28;20044;-67
2023/10/12 00:10:54;;;;;;;0.47;0.22;;;;;;;18.10;99.78;100152.09;5031113;28;20033;-68
2023/10/12 00:13:20;;;;;;;1.30;0.30;;;;;;;18.01;99.93;100155.41;5030513;28;20422;-68
2023/10/12 00:15:46;;;;;;;0.50;0.25;;;;;;;18.00;99.87;100177.63;5030098;28;20041;-67
2023/10/12 00:18:14;;;;;;;2.95;0.30;;;;;;;17.92;99.58;100176.22;5027920;28;20048;-68
2023/10/12 00:20:40;;;;;;;1.15;0.17;;;;;;;17.88;99.07;100176.28;5014779;28;20079;-69
2023/10/12 00:23:09;;;;;;;1.17;0.10;;;;;;;17.74;99.00;100160.16;5028898;28;21134;-68
2023/10/12 00:25:54;;;;;;;2.30;0.77;;;;;;;17.74;98.34;100162.09;5029587;28;20465;-68
2023/10/12 00:28:23;;;;;;;4.25;0.50;;;;;;;17.70;98.40;100172.28;5032809;28;20406;-68
2023/10/12 00:30:57;;;;;;;0.35;0.20;;;;;;;17.63;97.92;100167.75;5027384;28;20040;-68
2023/10/12 00:33:23;;;;;;;1.98;0.30;;;;;;;17.67;97.58;100167.69;5013042;28;20099;-68
2023/10/12 00:36:00;;;;;;;1.42;0.60;;;;;;;17.48;97.56;100152.03;5031794;28;20060;-69
2023/10/12 00:38:29;;;;;;;0.95;0.40;;;;;;;17.52;97.93;100150.00;5028388;28;20497;-67
2023/10/12 00:41:04;;;;;;;0.75;0.30;;;;;;;17.51;97.40;100157.44;5013377;28;21351;-68
2023/10/12 00:43:40;;;;;;;2.35;0.30;;;;;;;17.53;96.94;100154.28;5014640;28;20032;-68
2023/10/12 00:49:14;;;;;;;5.53;0.40;;;;;;;17.47;97.05;100158.63;5031623;28;20082;-68
2023/10/12 00:51:52;;;;;;;0.60;0.57;;;;;;;17.45;97.41;100152.81;5028617;28;20033;-68
2023/10/12 00:54:27;;;;;;;1.92;0.40;;;;;;;17.47;97.19;100153.19;5028929;28;20025;-68
2023/10/12 00:57:01;;;;;;;2.17;0.60;;;;;;;17.41;97.59;100155.63;5030382;28;20037;-67
2023/10/12 00:59:31;;;;;;;1.50;0.30;;;;;;;17.49;97.03;100150.84;5029668;28;20061;-68
2023/10/12 01:02:00;;;;;;;1.50;0.32;;;;;;;17.49;97.11;100157.06;5031733;28;20060;-68
2023/10/12 01:04:27;;;;;;;1.45;0.77;;;;;;;17.46;97.16;100168.75;5014490;28;20010;-68
2023/10/12 01:06:58;;;;;;;1.85;0.75;;;;;;;17.40;97.33;100173.13;5028272;28;20033;-68
2023/10/12 01:09:26;;;;;;;2.38;0.60;;;;;;;17.30;97.95;100176.78;5028089;28;20083;-68
2023/10/12 01:12:00;;;;;;;6.85;0.52;;;;;;;17.31;97.51;100172.88;5027852;28;20047;-68
2023/10/12 01:14:27;;;;;;;2.45;0.40;;;;;;;17.34;97.12;100185.69;5012660;28;20056;-68
2023/10/12 01:17:03;;;;;;;1.65;0.40;;;;;;;17.33;97.09;100205.13;5028042;28;20553;-68
2023/10/12 01:19:33;;;;;;;2.03;0.70;;;;;;;17.27;97.37;100193.94;5027156;28;20038;-68
2023/10/12 01:22:07;;;;;;;1.35;0.22;;;;;;;17.15;97.75;100176.22;5016057;28;20068;-68
2023/10/12 01:24:33;;;;;;;3.13;0.57;;;;;;;17.19;97.96;100181.59;5030233;28;20113;-66
2023/10/12 01:26:59;;;;;;;1.10;0.40;;;;;;;17.19;98.12;100189.75;5026191;28;20117;-68
2023/10/12 01:29:25;;;;;;;1.10;0.80;;;;;;;17.17;98.01;100185.94;5026758;28;20034;-68
2023/10/12 01:32:08;;;;;;;1.17;0.95;;;;;;;17.15;97.68;100184.38;5028730;28;20119;-68
2023/10/12 01:34:37;;;;;;;1.05;0.50;;;;;;;17.08;97.71;100181.00;5027272;28;20044;-66
2023/10/12 01:37:20;;;;;;;1.00;0.60;;;;;;;17.02;97.49;100177.97;5030382;28;20537;-68
2023/10/12 01:39:55;;;;;;;2.05;0.60;;;;;;;16.99;97.40;100188.91;5027037;28;20422;-69
2023/10/12 01:42:21;;;;;;;2.33;0.52;;;;;;;16.96;96.95;100193.19;5030355;28;20426;-67
2023/10/12 01:44:47;;;;;;;1.67;0.85;;;;;;;16.90;97.11;100185.88;5030658;28;20095;-68
2023/10/12 01:47:13;;;;;;;1.40;0.55;;;;;;;16.91;97.35;100182.00;5024061;28;20072;-68
2023/10/12 01:49:39;;;;;;;1.15;0.40;;;;;;;16.91;96.74;100177.34;5027506;28;20497;-69
2023/10/12 01:52:08;;;;;;;1.20;0.57;;;;;;;16.92;96.36;100178.09;5029455;28;20037;-68
2023/10/12 01:54:33;;;;;;;1.45;0.35;;;;;;;16.94;96.43;100189.34;5027311;28;20114;-68
2023/10/12 01:56:59;;;;;;;1.30;0.32;;;;;;;16.86;96.68;100179.75;5025897;28;20073;-68
2023/10/12 01:59:31;;;;;;;1.58;0.60;;;;;;;16.89;96.47;100189.81;5027268;28;20041;-67
2023/10/12 02:02:07;;;;;;;2.95;0.40;;;;;;;16.84;96.12;100199.19;5029320;28;20032;-68
2023/10/12 02:04:33;;;;;;;2.70;0.40;;;;;;;16.72;96.17;100213.34;5029612;28;20040;-69
2023/10/12 02:06:58;;;;;;;1.13;0.55;;;;;;;16.74;96.24;100208.22;5029222;28;20029;-69
2023/10/12 02:09:24;;;;;;;3.70;0.40;;;;;;;16.71;96.07;100211.78;5011480;28;20075;-68
2023/10/12 02:11:57;;;;;;;2.20;0.40;;;;;;;16.76;96.17;100214.03;5021375;28;20037;-68
2023/10/12 02:14:32;;;;;;;1.33;0.35;;;;;;;16.81;95.65;100216.31;5025839;28;20306;-68
2023/10/12 02:17:02;;;;;;;0.60;0.30;;;;;;;16.74;95.51;100216.38;5027670;28;20785;-68
2023/10/12 02:19:37;;;;;;;2.30;0.57;;;;;;;16.74;95.28;100210.19;5010116;28;20456;-68
2023/10/12 02:22:03;;;;;;;2.28;0.63;;;;;;;16.76;94.96;100218.72;5026821;28;20048;-68
2023/10/12 02:24:29;;;;;;;2.92;0.70;;;;;;;16.67;95.27;100221.13;5030162;28;20498;-68
2023/10/12 02:26:55;;;;;;;1.67;0.50;;;;;;;16.62;95.27;100221.59;5026163;28;20064;-68
2023/10/12 02:29:21;;;;;;;1.15;0.52;;;;;;;16.67;95.47;100232.03;5026030;28;20033;-68
2023/10/12 02:34:19;;;;;;;0.73;0.32;;;;;;;16.48;95.81;100230.69;5027686;28;20034;-68
2023/10/12 02:39:40;;;;;;;1.67;0.60;;;;;;;16.41;96.10;100233.47;5035357;28;20045;-69
2023/10/12 02:42:17;;;;;;;2.35;0.50;;;;;;;16.34;96.26;100235.47;5022590;28;20033;-67
2023/10/12 02:45:00;;;;;;;0.80;0.35;;;;;;;16.31;96.72;100239.75;5024657;28;20022;-67
2023/10/12 02:47:31;;;;;;;2.85;0.50;;;;;;;16.26;96.48;100229.31;5040209;28;20042;-66
2023/10/12 02:52:37;;;;;;;2.95;0.30;;;;;;;16.20;96.60;100234.41;5029028;28;20629;-67
2023/10/12 02:55:49;;;;;;;0.68;0.40;;;;;;;16.21;97.16;100240.63;5026179;28;20029;-66
2023/10/12 02:58:44;;;;;;;3.03;0.57;;;;;;;16.22;96.55;100250.31;5019696;28;20398;-66
2023/10/12 03:00:45;;;;;;;3.65;0.55;;;;;;;16.26;96.03;100245.63;5020009;28;20043;-67
2023/10/12 03:03:24;;;;;;;0.85;0.52;;;;;;;16.22;96.55;100258.47;5026590;28;20036;-67
2023/10/12 03:05:52;;;;;;;4.22;0.63;;;;;;;16.10;97.16;100259.72;5023635;28;20029;-64
2023/10/12 03:08:20;;;;;;;0.80;0.52;;;;;;;16.04;97.48;100264.09;5025646;28;20067;-68
2023/10/12 03:13:36;;;;;;;0.65;0.43;;;;;;;16.00;97.43;100260.63;5026987;28;20099;-67
2023/10/12 03:16:13;;;;;;;2.13;0.60;;;;;;;16.01;97.80;100258.66;5041888;28;20060;-67
2023/10/12 03:18:42;;;;;;;4.05;0.80;;;;;;;16.00;97.53;100259.84;5027165;28;20509;-68
2023/10/12 03:21:11;;;;;;;3.35;0.95;;;;;;;16.04;97.82;100260.59;5023847;28;20417;-68
2023/10/12 03:23:46;;;;;;;2.00;0.65;;;;;;;16.06;97.88;100248.16;5024752;28;20026;-68
2023/10/12 03:26:24;;;;;;;;;;;;;;;;;;;;;
2023/10/12 03:28:45;;;;;;;5.03;0.88;;;;;;;16.11;97.48;100255.84;5025184;28;20035;-67
2023/10/12 03:31:24;;;;;;;2.75;0.60;;;;;;;16.16;97.01;100258.13;5030192;28;20061;-67
2023/10/12 03:33:54;;;;;;;1.35;0.88;;;;;;;16.10;96.87;100253.56;5029674;28;20150;-68
2023/10/12 03:36:32;;;;;;;1.15;0.60;;;;;;;16.00;97.13;100251.69;5029068;28;20072;-68
2023/10/12 03:52:19;;;;;;;3.55;1.05;;;;;;;16.07;96.76;100259.78;5028795;28;20044;-68
2023/10/12 03:55:32;;;;;;;5.00;1.00;;;;;;;16.01;96.88;100259.44;5028501;28;20021;-68
2023/10/12 04:00:25;;;;;;;6.03;0.75;;;;;;;15.97;97.28;100255.97;5025131;28;20057;-67
2023/10/12 04:05:21;;;;;;;2.22;0.65;;;;;;;15.99;96.79;100263.72;5022350;28;20580;-68
2023/10/12 04:13:09;;;;;;;0.20;0.20;;;;;;;15.86;97.32;100274.31;5029965;28;20075;-68
2023/10/12 04:16:05;;;;;;;4.18;0.52;;;;;;;15.86;97.80;100273.53;5028677;28;20025;-68
2023/10/12 04:18:32;;;;;;;3.85;0.68;;;;;;;15.87;97.23;100278.53;5028497;28;20029;-69
2023/10/12 04:20:57;;;;;;;1.13;0.50;;;;;;;15.82;97.78;100265.41;5029912;28;20037;-68
2023/10/12 04:28:39;;;;;;;3.05;0.40;;;;;;;15.78;97.41;100280.16;5029281;28;20119;-69
2023/10/12 04:33:44;;;;;;;1.05;0.40;;;;;;;15.75;97.92;100294.56;5029803;28;20068;-68
2023/10/12 04:36:13;;;;;;;3.85;0.60;;;;;;;15.76;97.92;100291.44;5031114;28;20120;-69
2023/10/12 04:38:56;;;;;;;2.65;0.82;;;;;;;15.80;97.39;100302.28;5027432;28;20033;-67
2023/10/12 04:43:53;;;;;;;6.45;0.43;;;;;;;15.80;97.34;100304.97;5032225;28;20129;-68
2023/10/12 04:48:49;;;;;;;1.00;0.32;;;;;;;15.78;97.53;100313.53;5026483;28;20087;-68
2023/10/12 04:51:21;;;;;;;1.40;0.32;;;;;;;15.76;97.29;100318.59;5027473;28;20029;-69
2023/10/12 04:53:57;;;;;;;2.38;0.40;;;;;;;15.81;97.27;100333.69;5014640;28;20040;-69
2023/10/12 04:56:23;;;;;;;1.05;0.40;;;;;;;15.78;97.48;100329.81;5030614;28;20095;-69
2023/10/12 04:58:59;;;;;;;0.60;0.30;;;;;;;15.75;97.25;100329.84;5012334;28;20033;-69
2023/10/12 05:02:15;;;;;;;1.05;0.32;;;;;;;15.76;97.32;100336.81;5028041;28;20067;-69
2023/10/12 05:04:34;;;;;;;1.77;0.52;;;;;;;15.78;97.29;100339.91;5024898;28;20041;-68
2023/10/12 05:07:53;;;;;;;1.17;0.30;;;;;;;15.81;97.29;100339.91;5028401;28;20437;-68
2023/10/12 05:09:51;;;;;;;1.33;0.30;;;;;;;15.83;97.21;100342.97;5026020;28;20136;-68
2023/10/12 05:12:23;;;;;;;1.35;0.40;;;;;;;15.80;97.30;100343.78;5026631;28;20101;-68
2023/10/12 05:14:55;;;;;;;3.30;0.60;;;;;;;15.84;97.36;100349.19;5023697;28;20037;-68
2023/10/12 05:17:24;;;;;;;3.47;0.55;;;;;;;15.82;97.45;100360.47;5021533;28;20132;-67
2023/10/12 05:19:52;;;;;;;6.30;1.05;;;;;;;15.85;97.24;100354.22;5024184;28;20159;-68
2023/10/12 05:22:21;;;;;;;1.42;0.60;;;;;;;15.83;97.04;100356.56;5043568;28;20038;-66
2023/10/12 05:24:46;;;;;;;3.15;0.50;;;;;;;15.80;97.37;100362.00;5017936;28;20026;-68
2023/10/12 05:27:24;;;;;;;3.63;0.50;;;;;;;15.77;97.58;100371.75;5025441;28;20038;-68
2023/10/12 05:29:59;;;;;;;4.55;0.65;;;;;;;15.74;97.71;100374.47;5021493;28;20040;-69
2023/10/12 05:32:55;;;;;;;3.08;0.52;;;;;;;15.80;97.47;100362.78;5024747;28;20040;-70
2023/10/12 05:35:16;;;;;;;1.23;0.38;;;;;;;15.77;97.67;100370.97;5022862;28;20118;-67
2023/10/12 05:37:49;;;;;;;1.88;0.70;;;;;;;15.80;97.86;100375.59;5028621;28;20486;-70
2023/10/12 05:40:20;;;;;;;1.70;0.40;;;;;;;15.84;98.17;100381.78;5024145;28;20029;-67
2023/10/12 05:42:47;;;;;;;5.53;0.85;;;;;;;15.79;98.12;100388.41;5024616;28;20029;-67
2023/10/12 05:45:27;;;;;;;2.92;0.50;;;;;;;15.80;98.20;100386.44;5027447;28;20029;-67
2023/10/12 05:47:53;;;;;;;2.25;0.30;;;;;;;15.86;98.11;100388.38;5021605;28;20045;-68
2023/10/12 05:50:25;;;;;;;0.95;0.38;;;;;;;15.87;97.57;100397.28;5021807;28;20035;-68
2023/10/12 05:52:52;;;;;;;2.63;0.45;;;;;;;15.86;97.95;100396.50;5026669;28;20679;-68
2023/10/12 05:55:21;;;;;;;2.65;0.65;;;;;;;15.86;97.52;100415.53;5027069;28;20029;-68
2023/10/12 05:57:49;;;;;;;2.25;0.73;;;;;;;15.78;97.79;100411.28;5027514;28;20017;-69
2023/10/12 06:00:34;;;;;;;6.72;0.47;;;;;;;15.78;97.83;100411.28;5038204;28;20033;-67
2023/10/12 06:03:00;;;;;;;15.23;0.60;;;;;;;15.84;98.10;100420.59;5011917;28;20041;-68
2023/10/12 06:05:26;;;;;;;1.98;0.57;;;;;;;15.89;97.38;100406.56;5021579;28;20037;-66
2023/10/12 06:08:00;;;;;;;2.03;0.50;;;;;;;15.88;97.40;100421.34;5024599;28;20029;-67
2023/10/12 06:10:29;;;;;;;2.55;0.63;;;;;;;15.80;97.81;100427.97;5025520;28;20029;-69
2023/10/12 06:12:56;;;;;;;6.07;0.43;;;;;;;15.76;98.48;100429.13;5030910;28;20033;-68
2023/10/12 06:15:24;;;;;;;1.85;0.63;;;;;;;15.85;97.58;100424.06;5036124;28;20034;-69
2023/10/12 06:17:51;;;;;;;1.48;0.70;;;;;;;15.86;97.45;100439.97;5023089;28;20029;-67
2023/10/12 06:20:30;;;;;;;3.42;0.68;;;;;;;15.85;97.48;100440.38;5022860;28;20124;-68
2023/10/12 06:22:56;;;;;;;3.33;0.70;;;;;;;15.78;97.85;100438.44;5027535;28;20037;-69
2023/10/12 06:25:21;;;;;;;1.40;0.50;;;;;;;15.76;98.39;100435.34;5027911;28;20040;-69
2023/10/12 06:27:50;;;;;;;3.58;0.57;;;;;;;15.71;98.36;100454.78;5031456;28;20025;-69
2023/10/12 06:30:18;;;;;;;1.58;0.50;;;;;;;15.78;98.15;100460.19;5028376;28;20036;-68
2023/10/12 06:32:47;;;;;;;7.07;0.70;;;;;;;15.86;98.30;100467.13;5024020;28;20161;-69
2023/10/12 06:35:23;;;;;;;6.40;0.77;;;;;;;15.87;98.37;100468.66;5024744;28;20021;-69
2023/10/12 06:45:51;;;;;;;1.35;0.70;;;;;;;15.87;98.05;100493.09;5021666;28;20037;-68
2023/10/12 06:51:02;;;;;;;2.10;0.88;;;;;;;15.84;98.19;100504.78;5028524;28;20106;-69
2023/10/12 06:53:36;;;;;;;4.10;1.13;;;;;;;15.83;98.38;100508.63;5025819;28;20083;-68
2023/10/12 06:58:46;;;;;;;0.85;0.30;;;;;;;15.87;98.50;100506.69;5027055;28;20029;-68
2023/10/12 07:01:18;;;;;;;2.35;0.52;;;;;;;15.86;98.73;100504.38;5026591;28;20054;-68
2023/10/12 07:03:48;;;;;;;0.95;0.57;;;;;;;15.92;98.54;100509.00;5021353;28;20047;-68
2023/10/12 07:06:16;;;;;;;3.75;0.60;;;;;;;15.90;98.65;100522.22;5027310;28;20072;-68
2023/10/12 07:08:45;;;;;;;3.70;0.47;;;;;;;15.96;98.27;100520.66;5026762;28;20029;-68
2023/10/12 07:11:13;;;;;;;0.90;0.50;;;;;;;15.97;98.05;100526.81;5029986;28;20057;-69
2023/10/12 07:13:41;;;;;;;1.95;0.68;;;;;;;16.01;97.98;100533.81;5043297;28;20044;-69
2023/10/12 07:16:07;;;;;;;2.17;0.80;;;;;;;16.02;97.85;100529.16;5026546;28;20060;-67
2023/10/12 07:18:34;;;;;;;1.35;0.63;;;;;;;16.02;98.02;100532.66;5028800;28;20026;-68
2023/10/12 07:21:00;;;;;;;1.95;0.45;;;;;;;16.06;98.02;100541.56;5027281;28;20026;-69
2023/10/12 07:23:43;;;;;;;2.90;0.80;;;;;;;16.08;98.34;100543.88;5027088;28;20390;-68
2023/10/12 07:26:12;;;;;;;1.83;0.77;;;;;;;16.09;98.19;100556.28;5030758;28;20107;-67
2023/10/12 07:28:41;;;;;;;1.45;0.70;;;;;;;16.16;98.12;100539.97;5029063;28;20037;-68
2023/10/12 07:42:00;;;;;;;6.40;0.70;;;;;;;16.11;98.33;100551.22;5027396;28;20048;-68
2023/10/12 07:44:42;;;;;;;1.13;0.40;;;;;;;16.08;98.39;100552.03;5023665;28;20025;-67
2023/10/12 07:47:18;;;;;;;4.55;1.08;;;;;;;16.17;98.38;100547.72;5027436;28;20048;-67
2023/10/12 07:49:50;;;;;;;2.65;0.70;;;;;;;16.24;98.22;100547.69;5028773;28;20049;-68
2023/10/12 07:57:17;;;;;;;4.88;1.42;;;;;;;16.31;98.21;100555.03;5030830;28;20650;-67
2023/10/12 08:08:11;;;;;;;2.35;0.88;;;;;;;16.81;97.42;100575.38;5027493;28;20042;-67
2023/10/12 08:13:32;;;;;;;3.63;0.68;;;;;;;17.19;96.62;100572.78;5030844;28;20045;-67
2023/10/12 08:15:59;;;;;;;2.53;0.70;;;;;;;17.32;95.51;100582.78;5030349;28;20486;-67
2023/10/12 08:21:25;;;;;;;7.72;0.60;;;;;;;17.37;94.41;100587.78;5031208;28;20030;-67
2023/10/12 08:24:09;;;;;;;3.58;0.65;;;;;;;17.37;93.49;100587.78;5032595;28;20409;-67
2023/10/12 08:29:17;;;;;;;3.13;1.35;;;;;;;17.33;92.84;100591.69;5027564;28;20119;-68
2023/10/12 08:31:44;;;;;;;1.88;0.80;;;;;;;17.28;92.43;100594.88;5029827;28;20033;-66
2023/10/12 08:37:18;;;;;;;3.78;0.95;;;;;;;17.22;91.96;100613.59;5032000;28;20037;-69
2023/10/12 08:45:09;;;;;;;1.63;0.70;;;;;;;17.39;91.48;100629.00;5030926;28;20025;-67
2023/10/12 08:50:08;;;;;;;4.13;0.85;;;;;;;17.71;91.43;100618.63;5022616;28;20042;-67
2023/10/12 08:52:38;;;;;;;3.38;0.50;;;;;;;17.92;90.81;100632.03;5027195;28;20479;-68
2023/10/12 08:57:55;;;;;;;1.75;0.60;;;;;;;18.41;89.12;100627.22;5028319;28;20051;-66
2023/10/12 09:03:08;;;;;;;4.50;0.75;;;;;;;18.37;87.27;100640.16;5026163;28;20033;-68
2023/10/12 09:05:34;;;;;;;7.78;0.73;;;;;;;18.43;87.17;100635.78;5028374;28;20406;-67
2023/10/12 09:13:25;;;;;;;4.57;0.70;;;;;;;18.38;84.71;100658.03;5026171;28;20404;-68
2023/10/12 09:15:54;;;;;;;3.35;0.47;;;;;;;18.49;85.28;100659.50;5028534;28;20124;-68
2023/10/12 09:18:24;;;;;;;7.00;0.70;;;;;;;18.55;84.53;100665.28;5027420;28;20033;-68
2023/10/12 09:26:15;;;;;;;1.02;0.22;;;;;;;18.48;83.27;100666.16;5031426;28;20025;-67
2023/10/12 09:31:48;;;;;;;2.25;0.38;;;;;;;18.37;83.53;100675.59;5027192;28;20065;-67
2023/10/12 09:36:43;;;;;;;2.17;0.65;;;;;;;18.27;83.24;100687.41;5027734;28;20414;-64
2023/10/12 09:39:15;;;;;;;3.70;0.60;;;;;;;18.30;83.96;100681.91;5027773;28;20039;-67
2023/10/12 09:41:54;;;;;;;4.53;0.50;;;;;;;18.34;83.40;100679.13;5022974;28;20112;-67
2023/10/12 09:44:26;;;;;;;1.40;0.35;;;;;;;18.34;83.05;100679.13;5029692;28;20037;-68
2023/10/12 09:46:55;;;;;;;4.38;0.70;;;;;;;18.44;82.98;100676.31;5027262;28;20515;-67
2023/10/12 09:49:22;;;;;;;3.60;0.40;;;;;;;18.53;82.38;100684.00;5029128;28;20502;-67
2023/10/12 09:51:59;;;;;;;8.38;0.70;;;;;;;18.60;81.68;100684.69;5028327;28;20768;-67
2023/10/12 09:54:56;;;;;;;3.20;0.60;;;;;;;18.55;80.78;100685.16;5026843;28;20494;-67
2023/10/12 09:57:26;;;;;;;6.47;0.55;;;;;;;18.55;79.71;100687.09;5022297;28;20050;-67
2023/10/12 10:00:01;;;;;;;1.65;0.55;;;;;;;18.50;79.34;100682.09;5029719;28;20520;-66
2023/10/12 10:05:01;;;;;;;2.88;0.70;;;;;;;18.51;78.51;100691.81;5031978;28;20038;-67
2023/10/12 10:07:35;;;;;;;1.25;0.60;;;;;;;18.50;78.98;100693.00;5029718;28;20069;-65
2023/10/12 10:10:05;;;;;;;6.75;0.50;;;;;;;18.58;78.35;100697.97;5026909;28;20489;-66
2023/10/12 10:12:36;;;;;;;4.40;0.60;;;;;;;18.47;78.59;100702.78;5029252;28;20057;-66
2023/10/12 10:15:14;;;;;;;1.67;0.38;;;;;;;18.51;77.47;100695.31;5025849;28;20033;-65
2023/10/12 10:17:47;;;;;;;4.22;0.60;;;;;;;18.67;77.07;100702.94;5028791;28;20505;-66
2023/10/12 10:22:56;;;;;;;1.20;0.40;;;;;;;18.93;74.86;100702.22;5030985;28;20030;-67
2023/10/12 10:25:45;;;;;;;0.75;0.30;;;;;;;18.97;73.36;100699.44;5028888;28;20071;-68
2023/10/12 10:28:28;;;;;;;2.53;0.30;;;;;;;19.03;73.03;100704.03;5022605;28;20049;-68
2023/10/12 10:30:59;;;;;;;2.00;0.17;;;;;;;19.01;71.59;100713.84;5026345;28;20040;-67
2023/10/12 10:33:25;;;;;;;5.20;0.55;;;;;;;19.03;71.78;100714.19;5023533;28;20041;-67
2023/10/12 10:36:00;;;;;;;2.15;0.40;;;;;;;18.96;72.02;100704.13;5026922;28;20033;-68
2023/10/12 10:38:34;;;;;;;0.50;0.15;;;;;;;18.89;72.46;100710.44;5024406;28;20033;-67
2023/10/12 10:41:18;;;;;;;2.13;0.95;;;;;;;18.89;72.58;100709.69;5027391;28;20435;-67
2023/10/12 10:43:45;;;;;;;3.30;0.63;;;;;;;18.76;71.27;100701.25;5024664;28;20030;-68
2023/10/12 10:46:13;;;;;;;1.15;0.30;;;;;;;18.83;70.98;100695.69;5028266;28;20033;-67
2023/10/12 10:48:43;;;;;;;0.65;0.35;;;;;;;18.79;70.45;100692.25;5028683;28;20029;-67
2023/10/12 10:51:19;;;;;;;2.17;0.38;;;;;;;18.80;71.58;100690.28;5025950;28;20041;-68
2023/10/12 10:53:54;;;;;;;;;;;;;;;18.75;72.12;100690.75;5023841;28;20564;-67
2023/10/12 10:56:36;;;;;;;3.50;0.20;;;;;;;18.71;72.08;100690.81;5028497;28;19969;-67
2023/10/12 10:59:05;;;;;;;1.73;0.60;;;;;;;18.68;70.98;100685.38;5024293;28;20037;-67
2023/10/12 11:01:31;;;;;;;3.38;0.30;;;;;;;18.67;71.32;100692.03;5024470;28;20030;-67
2023/10/12 11:03:58;;;;;;;2.25;0.60;;;;;;;18.70;71.51;100689.25;5025374;28;20029;-66
2023/10/12 11:06:27;;;;;;;5.53;0.50;;;;;;;18.82;71.02;100690.66;5031603;28;20040;-68
2023/10/12 11:09:07;;;;;;;2.63;0.28;;;;;;;18.83;70.14;100692.22;5028840;28;20033;-66
2023/10/12 11:11:44;;;;;;;0.68;0.40;;;;;;;18.91;70.59;100688.97;5028647;28;20030;-66
2023/10/12 11:14:12;;;;;;;3.97;0.70;;;;;;;18.87;70.08;100685.50;5034142;28;20038;-67
2023/10/12 11:16:37;;;;;;;2.38;0.43;;;;;;;18.76;70.44;100686.84;5025553;28;20026;-66
2023/10/12 11:19:08;;;;;;;0.70;0.20;;;;;;;18.70;70.35;100685.75;5028816;28;20029;-68
2023/10/12 11:21:34;;;;;;;1.92;0.60;;;;;;;18.71;70.42;100687.31;5024944;28;20168;-67
2023/10/12 11:24:02;;;;;;;0.93;0.30;;;;;;;18.68;69.70;100686.16;5028946;28;20116;-67
2023/10/12 11:26:39;;;;;;;2.55;0.30;;;;;;;18.57;69.94;100679.28;5030882;28;20040;-67
2023/10/12 11:29:06;;;;;;;2.05;0.28;;;;;;;18.61;70.14;100680.78;5030652;28;20482;-67
2023/10/12 11:31:33;;;;;;;2.42;0.68;;;;;;;18.67;69.86;100675.66;5030059;28;20101;-67
2023/10/12 11:34:06;;;;;;;3.65;0.95;;;;;;;18.61;69.67;100680.00;5030289;28;20371;-67
2023/10/12 11:36:33;;;;;;;3.92;0.50;;;;;;;18.57;71.17;100679.28;5023984;28;20038;-67
2023/10/12 11:39:04;;;;;;;3.38;0.60;;;;;;;18.50;71.42;100677.41;5015630;28;20032;-68
2023/10/12 11:41:30;;;;;;;2.92;0.35;;;;;;;18.55;70.94;100670.72;5033826;28;20060;-67
2023/10/12 11:44:05;;;;;;;3.28;0.35;;;;;;;18.52;71.25;100675.06;5028057;28;20096;-66
2023/10/12 11:46:44;;;;;;;1.17;0.30;;;;;;;18.56;71.83;100678.50;5028980;28;20033;-67
2023/10/12 11:49:13;;;;;;;1.45;0.28;;;;;;;18.59;71.92;100676.91;5030793;28;20048;-68
2023/10/12 11:51:50;;;;;;;4.57;0.38;;;;;;;18.60;69.74;100683.94;5030087;28;20025;-66
2023/10/12 11:54:32;;;;;;;2.45;0.30;;;;;;;18.52;69.71;100685.97;5030935;28;20037;-67
2023/10/12 11:56:58;;;;;;;1.08;0.30;;;;;;;18.59;70.03;100688.59;5023599;28;20073;-67
2023/10/12 11:59:31;;;;;;;4.25;0.60;;;;;;;18.65;70.32;100683.47;5029565;28;20036;-67
2023/10/12 12:02:00;;;;;;;4.82;0.68;;;;;;;18.74;70.31;100681.00;5034864;28;20059;-68
2023/10/12 12:04:39;;;;;;;1.83;0.50;;;;;;;18.70;68.61;100691.19;5033618;28;20100;-67
2023/10/12 12:07:05;;;;;;;4.03;0.45;;;;;;;18.70;68.85;100691.19;5026750;28;20520;-68
2023/10/12 12:09:31;;;;;;;1.50;0.52;;;;;;;18.67;69.12;100690.06;5028537;28;20041;-66
2023/10/12 12:11:57;;;;;;;3.28;0.30;;;;;;;18.67;68.63;100692.03;5028116;28;20393;-68
2023/10/12 12:14:23;;;;;;;0.70;0.25;;;;;;;18.65;67.89;100695.16;5025208;28;20164;-67
2023/10/12 12:16:48;;;;;;;3.03;0.43;;;;;;;18.54;67.78;100693.75;5027622;28;20537;-68
2023/10/12 12:19:18;;;;;;;3.58;0.82;;;;;;;18.45;68.37;100691.50;5031530;28;20490;-68
2023/10/12 12:21:45;;;;;;;1.35;0.38;;;;;;;18.62;68.21;100695.22;5030944;28;20040;-67
2023/10/12 12:24:24;;;;;;;3.05;0.40;;;;;;;18.74;66.47;100695.44;5023963;28;20048;-67
2023/10/12 12:26:52;;;;;;;4.05;0.20;;;;;;;18.83;66.27;100695.69;5028029;28;20117;-68
2023/10/12 12:29:22;;;;;;;2.45;0.28;;;;;;;18.92;65.74;100695.22;5025595;28;20045;-67
2023/10/12 12:31:48;;;;;;;2.83;0.50;;;;;;;19.01;65.39;100692.00;5009534;28;20041;-67
2023/10/12 12:34:34;;;;;;;3.55;0.40;;;;;;;19.12;64.35;100684.41;5025297;28;20526;-67
2023/10/12 12:37:00;;;;;;;4.90;0.47;;;;;;;19.21;63.00;100692.84;5025838;28;20547;-67
2023/10/12 12:39:32;;;;;;;0.75;0.20;;;;;;;19.24;63.98;100690.06;5026720;28;20037;-67
2023/10/12 12:41:58;;;;;;;2.13;0.90;;;;;;;19.36;62.84;100695.00;5028829;28;20025;-66
2023/10/12 12:44:23;;;;;;;3.17;0.38;;;;;;;19.39;63.65;100687.94;5009932;28;20018;-67
2023/10/12 12:46:49;;;;;;;4.15;0.20;;;;;;;19.41;63.01;100691.81;5030832;28;20405;-67
2023/10/12 12:49:14;;;;;;;0.95;0.30;;;;;;;19.44;62.07;100684.75;5026464;28;20490;-67
2023/10/12 12:51:40;;;;;;;1.90;0.35;;;;;;;19.45;62.17;100694.50;5026727;28;20022;-67
2023/10/12 12:54:05;;;;;;;2.80;0.30;;;;;;;19.43;62.41;100686.72;5024459;28;20048;-66
2023/10/12 12:56:31;;;;;;;3.03;0.22;;;;;;;19.48;63.10;100688.97;5027216;28;20088;-68
2023/10/12 12:58:57;;;;;;;1.75;0.30;;;;;;;19.47;62.20;100687.41;5020297;28;20405;-66
2023/10/12 13:01:23;;;;;;;2.92;0.25;;;;;;;19.54;61.43;100692.78;5025998;28;20091;-66
2023/10/12 13:03:52;;;;;;;1.08;0.40;;;;;;;19.55;60.89;100682.63;5023739;28;20486;-67
2023/10/12 13:06:19;;;;;;;2.22;0.20;;;;;;;19.55;60.99;100690.84;5025571;28;20071;-67
2023/10/12 13:08:48;;;;;;;3.50;0.28;;;;;;;19.59;62.17;100692.31;5024959;28;20028;-67
2023/10/12 13:11:20;;;;;;;1.23;0.28;;;;;;;19.57;62.05;100686.47;5031353;28;20065;-67
2023/10/12 13:13:47;;;;;;;0.20;0.15;;;;;;;19.62;62.79;100687.97;5025542;28;20038;-67
2023/10/12 13:16:14;;;;;;;0.85;0.30;;;;;;;19.62;62.50;100683.28;5027669;28;20041;-68
2023/10/12 13:18:40;;;;;;;0.82;0.40;;;;;;;19.67;62.84;100671.88;5022230;28;20075;-68
2023/10/12 13:21:12;;;;;;;5.18;0.52;;;;;;;19.74;61.27;100679.19;5024071;28;20049;-65
2023/10/12 13:23:38;;;;;;;2.83;0.40;;;;;;;19.66;60.95;100678.53;5029998;28;20478;-67
2023/10/12 13:26:07;;;;;;;1.50;0.43;;;;;;;19.65;61.37;100679.72;5032899;28;20033;-66
2023/10/12 13:28:33;;;;;;;2.38;0.22;;;;;;;19.71;61.81;100680.78;5026786;28;20037;-67
2023/10/12 13:30:58;;;;;;;2.72;0.40;;;;;;;19.71;62.31;100677.28;5029164;28;20106;-67
2023/10/12 13:33:27;;;;;;;1.73;0.22;;;;;;;19.74;62.71;100676.47;5029067;28;20548;-67
2023/10/12 13:35:56;;;;;;;1.70;0.20;;;;;;;19.71;63.46;100675.31;5026674;28;20041;-67
2023/10/12 13:38:21;;;;;;;4.63;0.43;;;;;;;19.76;62.75;100677.56;5030917;28;20025;-67
2023/10/12 13:40:48;;;;;;;0.47;0.30;;;;;;;19.84;62.27;100680.94;5027856;28;20031;-67
2023/10/12 13:43:15;;;;;;;2.38;0.65;;;;;;;19.75;62.24;100683.47;5026489;28;20026;-68
2023/10/12 13:45:48;;;;;;;1.77;0.60;;;;;;;19.71;61.92;100682.75;5025117;28;20490;-67
2023/10/12 13:48:25;;;;;;;0.80;0.38;;;;;;;19.68;63.91;100683.59;5026729;28;20131;-67
2023/10/12 13:51:02;;;;;;;5.15;0.65;;;;;;;19.68;64.00;100676.16;5026871;28;20034;-67
2023/10/12 13:53:29;;;;;;;2.50;0.30;;;;;;;19.74;64.18;100673.72;5027654;28;20464;-68
2023/10/12 13:55:56;;;;;;;3.10;0.43;;;;;;;19.79;64.58;100657.63;5029748;28;20165;-67
2023/10/12 13:58:25;;;;;;;0.43;0.28;;;;;;;19.84;63.53;100659.09;5028441;28;20071;-67